createdAt,value
2018-05-17T00:01:06.401Z,1013.98
2018-05-17T00:02:15.041Z,1013.99
2018-05-17T00:03:23.958Z,1013.98
2018-05-17T00:04:32.858Z,1014.02
2018-05-17T00:05:41.506Z,1014.02
2018-05-17T00:06:50.142Z,1014.07
2018-05-17T00:07:58.798Z,1014.04
2018-05-17T00:09:07.426Z,1014.09
2018-05-17T00:10:16.072Z,1014.17
2018-05-17T00:11:24.982Z,1014.14
2018-05-17T00:12:33.905Z,1014.2
2018-05-17T00:13:42.544Z,1014.21
2018-05-17T00:14:51.182Z,1014.23
2018-05-17T00:16:00.092Z,1014.21
2018-05-17T00:17:08.730Z,1014.21
2018-05-17T00:18:17.383Z,1014.19
2018-05-17T00:19:26.023Z,1014.15
2018-05-17T00:20:34.668Z,1014.14
2018-05-17T00:21:43.301Z,1014.13
2018-05-17T00:22:51.948Z,1014.15
2018-05-17T00:24:00.599Z,1014.16
2018-05-17T00:25:09.232Z,1014.09
2018-05-17T00:26:18.130Z,1014.12
2018-05-17T00:27:27.050Z,1014.16
2018-05-17T00:28:35.968Z,1014.12
2018-05-17T00:29:44.598Z,1014.14
2018-05-17T00:30:53.498Z,1014.12
2018-05-17T00:32:02.142Z,1014.17
2018-05-17T00:33:10.785Z,1014.19
2018-05-17T00:34:19.430Z,1014.18
2018-05-17T00:35:28.076Z,1014.21
2018-05-17T00:36:36.713Z,1014.23
2018-05-17T00:37:45.357Z,1014.23
2018-05-17T00:38:53.996Z,1014.2
2018-05-17T00:40:02.914Z,1014.21
2018-05-17T00:41:11.816Z,1014.18
2018-05-17T00:42:20.461Z,1014.18
2018-05-17T00:43:29.106Z,1014.15
2018-05-17T00:44:37.748Z,1014.2
2018-05-17T00:45:46.644Z,1014.19
2018-05-17T00:46:55.294Z,1014.2
2018-05-17T00:48:04.195Z,1014.23
2018-05-17T00:49:12.841Z,1014.21
2018-05-17T00:50:21.479Z,1014.24
2018-05-17T00:51:30.125Z,1014.21
2018-05-17T00:52:38.764Z,1014.18
2018-05-17T00:53:47.405Z,1014.23
2018-05-17T00:54:56.324Z,1014.23
2018-05-17T00:56:05.250Z,1014.22
2018-05-17T00:57:13.885Z,1014.23
2018-05-17T00:58:22.525Z,1014.24
2018-05-17T00:59:31.444Z,1014.23
2018-05-17T01:00:40.082Z,1014.25
2018-05-17T01:01:48.726Z,1014.24
2018-05-17T01:02:57.630Z,1014.28
2018-05-17T01:04:06.278Z,1014.25
2018-05-17T01:05:14.916Z,1014.27
2018-05-17T01:06:23.562Z,1014.29
2018-05-17T01:07:32.207Z,1014.24
2018-05-17T01:08:40.848Z,1014.23
2018-05-17T01:09:49.490Z,1014.22
2018-05-17T01:10:58.208Z,1014.27
2018-05-17T01:12:06.780Z,1014.21
2018-05-17T01:13:15.416Z,1014.19
2018-05-17T01:14:24.061Z,1014.23
2018-05-17T01:15:32.706Z,1014.26
2018-05-17T01:16:41.611Z,1014.25
2018-05-17T01:17:50.254Z,1014.27
2018-05-17T01:18:58.903Z,1014.29
2018-05-17T01:20:07.541Z,1014.29
2018-05-17T01:21:16.176Z,1014.28
2018-05-17T01:22:25.089Z,1014.27
2018-05-17T01:23:34.013Z,1014.3
2018-05-17T01:24:42.657Z,1014.3
2018-05-17T01:25:51.560Z,1014.32
2018-05-17T01:27:00.207Z,1014.31
2018-05-17T01:28:08.847Z,1014.32
2018-05-17T01:29:17.490Z,1014.34
2018-05-17T01:30:26.133Z,1014.34
2018-05-17T01:31:35.034Z,1014.35
2018-05-17T01:32:43.681Z,1014.36
2018-05-17T01:33:52.589Z,1014.36
2018-05-17T01:35:01.252Z,1014.36
2018-05-17T01:36:10.553Z,1014.38
2018-05-17T01:37:19.196Z,1014.35
2018-05-17T01:38:27.840Z,1014.38
2018-05-17T01:39:36.489Z,1014.35
2018-05-17T01:40:45.128Z,1014.37
2018-05-17T01:41:53.771Z,1014.39
2018-05-17T01:43:02.418Z,1014.38
2018-05-17T01:44:11.069Z,1014.38
2018-05-17T01:45:19.711Z,1014.38
2018-05-17T01:46:28.354Z,1014.34
2018-05-17T01:47:36.998Z,1014.4
2018-05-17T01:48:45.636Z,1014.38
2018-05-17T01:49:54.283Z,1014.42
2018-05-17T01:51:03.193Z,1014.44
2018-05-17T01:52:11.842Z,1014.41
2018-05-17T01:53:20.481Z,1014.39
2018-05-17T01:54:29.128Z,1014.45
2018-05-17T01:55:37.769Z,1014.42
2018-05-17T01:56:46.408Z,1014.4
2018-05-17T01:57:55.309Z,1014.43
2018-05-17T01:59:04.233Z,1014.41
2018-05-17T02:00:12.916Z,1014.44
2018-05-17T02:01:21.519Z,1014.4
2018-05-17T02:02:30.161Z,1014.39
2018-05-17T02:03:38.800Z,1014.49
2018-05-17T02:04:47.708Z,1014.4
2018-05-17T02:05:56.353Z,1014.45
2018-05-17T02:07:05.265Z,1014.39
2018-05-17T02:08:13.901Z,1014.43
2018-05-17T02:09:22.811Z,1014.46
2018-05-17T02:10:31.455Z,1014.45
2018-05-17T02:11:40.105Z,1014.44
2018-05-17T02:12:48.741Z,1014.45
2018-05-17T02:13:57.390Z,1014.4
2018-05-17T02:15:06.289Z,1014.49
2018-05-17T02:16:14.941Z,1014.49
2018-05-17T02:17:23.575Z,1014.48
2018-05-17T02:18:32.218Z,1014.46
2018-05-17T02:19:41.122Z,1014.47
2018-05-17T02:20:50.045Z,1014.44
2018-05-17T02:21:58.683Z,1014.41
2018-05-17T02:23:07.323Z,1014.46
2018-05-17T02:24:15.963Z,1014.5
2018-05-17T02:25:24.601Z,1014.48
2018-05-17T02:26:33.252Z,1014.48
2018-05-17T02:27:41.889Z,1014.52
2018-05-17T02:28:50.537Z,1014.5
2018-05-17T02:29:59.437Z,1014.51
2018-05-17T02:31:08.096Z,1014.53
2018-05-17T02:32:16.740Z,1014.51
2018-05-17T02:33:25.394Z,1014.53
2018-05-17T02:34:34.032Z,1014.55
2018-05-17T02:35:42.951Z,1014.52
2018-05-17T02:36:52.120Z,1014.55
2018-05-17T02:38:00.767Z,1014.51
2018-05-17T02:39:09.400Z,1014.55
2018-05-17T02:40:18.580Z,1014.56
2018-05-17T02:41:27.238Z,1014.57
2018-05-17T02:42:36.139Z,1014.6
2018-05-17T02:43:45.068Z,1014.57
2018-05-17T02:44:53.702Z,1014.59
2018-05-17T02:46:02.623Z,1014.6
2018-05-17T02:47:11.797Z,1014.6
2018-05-17T02:48:20.450Z,1014.66
2018-05-17T02:49:29.088Z,1014.6
2018-05-17T02:50:37.739Z,1014.61
2018-05-17T02:51:46.375Z,1014.59
2018-05-17T02:52:55.298Z,1014.59
2018-05-17T02:54:03.929Z,1014.55
2018-05-17T02:55:12.899Z,1014.61
2018-05-17T02:56:21.999Z,1014.54
2018-05-17T02:57:30.795Z,1014.58
2018-05-17T02:58:39.624Z,1014.54
2018-05-17T02:59:48.469Z,1014.6
2018-05-17T03:00:57.373Z,1014.6
2018-05-17T03:02:06.338Z,1014.62
2018-05-17T03:03:15.274Z,1014.64
2018-05-17T03:04:23.916Z,1014.64
2018-05-17T03:05:32.571Z,1014.63
2018-05-17T03:06:41.196Z,1014.63
2018-05-17T03:07:50.111Z,1014.59
2018-05-17T03:08:58.750Z,1014.58
2018-05-17T03:10:07.402Z,1014.6
2018-05-17T03:11:16.043Z,1014.58
2018-05-17T03:12:24.693Z,1014.58
2018-05-17T03:13:33.337Z,1014.61
2018-05-17T03:14:41.985Z,1014.62
2018-05-17T03:15:50.616Z,1014.61
2018-05-17T03:16:59.260Z,1014.63
2018-05-17T03:18:07.906Z,1014.65
2018-05-17T03:19:16.552Z,1014.65
2018-05-17T03:20:25.198Z,1014.67
2018-05-17T03:21:33.839Z,1014.73
2018-05-17T03:22:42.486Z,1014.74
2018-05-17T03:23:51.125Z,1014.75
2018-05-17T03:25:00.043Z,1014.76
2018-05-17T03:26:08.677Z,1014.71
2018-05-17T03:27:17.323Z,1014.76
2018-05-17T03:28:25.959Z,1014.77
2018-05-17T03:29:34.611Z,1014.74
2018-05-17T03:30:43.246Z,1014.77
2018-05-17T03:31:52.162Z,1014.75
2018-05-17T03:33:00.809Z,1014.79
2018-05-17T03:34:09.464Z,1014.7
2018-05-17T03:35:18.103Z,1014.72
2018-05-17T03:36:26.738Z,1014.72
2018-05-17T03:37:35.650Z,1014.68
2018-05-17T03:38:44.816Z,1014.64
2018-05-17T03:39:53.467Z,1014.67
2018-05-17T03:41:02.115Z,1014.75
2018-05-17T03:42:10.759Z,1014.66
2018-05-17T03:43:19.393Z,1014.67
2018-05-17T03:44:28.045Z,1014.7
2018-05-17T03:45:36.683Z,1014.7
2018-05-17T03:46:45.328Z,1014.68
2018-05-17T03:47:53.961Z,1014.65
2018-05-17T03:49:02.620Z,1014.68
2018-05-17T03:50:11.256Z,1014.66
2018-05-17T03:51:19.899Z,1014.69
2018-05-17T03:52:28.532Z,1014.62
2018-05-17T03:53:37.178Z,1014.7
2018-05-17T03:54:45.825Z,1014.65
2018-05-17T03:55:54.468Z,1014.67
2018-05-17T03:57:03.123Z,1014.66
2018-05-17T03:58:12.018Z,1014.68
2018-05-17T03:59:20.663Z,1014.67
2018-05-17T04:00:29.298Z,1014.68
2018-05-17T04:01:37.949Z,1014.68
2018-05-17T04:02:46.582Z,1014.66
2018-05-17T04:03:55.756Z,1014.73
2018-05-17T04:05:04.429Z,1014.69
2018-05-17T04:06:13.046Z,1014.65
2018-05-17T04:07:21.679Z,1014.67
2018-05-17T04:08:30.406Z,1014.69
2018-05-17T04:09:38.966Z,1014.64
2018-05-17T04:10:47.611Z,1014.72
2018-05-17T04:11:56.253Z,1014.7
2018-05-17T04:13:04.896Z,1014.69
2018-05-17T04:14:13.536Z,1014.68
2018-05-17T04:15:22.173Z,1014.74
2018-05-17T04:16:30.821Z,1014.77
2018-05-17T04:17:39.463Z,1014.73
2018-05-17T04:18:48.106Z,1014.75
2018-05-17T04:19:56.745Z,1014.78
2018-05-17T04:21:05.392Z,1014.8
2018-05-17T04:22:14.035Z,1014.83
2018-05-17T04:23:22.675Z,1014.83
2018-05-17T04:24:31.313Z,1014.84
2018-05-17T04:25:39.957Z,1014.85
2018-05-17T04:26:48.600Z,1014.86
2018-05-17T04:27:57.245Z,1014.83
2018-05-17T04:29:05.884Z,1014.85
2018-05-17T04:30:14.528Z,1014.81
2018-05-17T04:31:23.169Z,1014.83
2018-05-17T04:32:31.813Z,1014.83
2018-05-17T04:33:40.457Z,1014.82
2018-05-17T04:34:49.100Z,1014.84
2018-05-17T04:35:57.739Z,1014.88
2018-05-17T04:37:06.913Z,1014.84
2018-05-17T04:38:15.560Z,1014.89
2018-05-17T04:39:24.205Z,1014.87
2018-05-17T04:40:32.906Z,1014.87
2018-05-17T04:41:41.481Z,1014.88
2018-05-17T04:42:50.126Z,1014.86
2018-05-17T04:43:58.763Z,1014.87
2018-05-17T04:45:07.410Z,1014.89
2018-05-17T04:46:16.315Z,1014.86
2018-05-17T04:47:24.959Z,1014.88
2018-05-17T04:48:33.600Z,1014.88
2018-05-17T04:49:42.240Z,1014.86
2018-05-17T04:50:50.879Z,1014.85
2018-05-17T04:51:59.517Z,1014.86
2018-05-17T04:53:08.166Z,1014.9
2018-05-17T04:54:17.072Z,1014.86
2018-05-17T04:55:25.712Z,1014.85
2018-05-17T04:56:34.350Z,1014.86
2018-05-17T04:57:42.993Z,1014.87
2018-05-17T04:58:51.640Z,1014.84
2018-05-17T05:00:00.281Z,1014.88
2018-05-17T05:01:09.193Z,1014.88
2018-05-17T05:02:17.846Z,1014.9
2018-05-17T05:03:26.485Z,1014.9
2018-05-17T05:04:35.130Z,1014.91
2018-05-17T05:05:43.768Z,1014.85
2018-05-17T05:06:52.413Z,1014.91
2018-05-17T05:08:01.057Z,1014.89
2018-05-17T05:09:09.700Z,1014.89
2018-05-17T05:10:18.340Z,1014.85
2018-05-17T05:11:26.986Z,1014.87
2018-05-17T05:12:35.628Z,1014.9
2018-05-17T05:13:44.537Z,1014.87
2018-05-17T05:14:53.174Z,1014.9
2018-05-17T05:16:01.824Z,1014.91
2018-05-17T05:17:10.465Z,1014.92
2018-05-17T05:18:19.107Z,1014.92
2018-05-17T05:19:27.743Z,1014.94
2018-05-17T05:20:36.396Z,1014.93
2018-05-17T05:21:45.301Z,1014.98
2018-05-17T05:22:53.947Z,1015
2018-05-17T05:24:02.592Z,1015.02
2018-05-17T05:25:11.500Z,1014.97
2018-05-17T05:26:20.143Z,1014.97
2018-05-17T05:27:29.049Z,1015.02
2018-05-17T05:28:37.693Z,1015
2018-05-17T05:29:46.329Z,1015.04
2018-05-17T05:30:55.232Z,1015.08
2018-05-17T05:32:03.882Z,1014.95
2018-05-17T05:33:12.791Z,1015.03
2018-05-17T05:34:21.431Z,1015.08
2018-05-17T05:35:30.343Z,1015.05
2018-05-17T05:36:38.984Z,1015.04
2018-05-17T05:37:47.631Z,1015.1
2018-05-17T05:38:56.268Z,1015.06
2018-05-17T05:40:04.920Z,1015.04
2018-05-17T05:41:13.556Z,1015.07
2018-05-17T05:42:22.202Z,1015.09
2018-05-17T05:43:30.842Z,1015.07
2018-05-17T05:44:39.484Z,1015.07
2018-05-17T05:45:48.126Z,1015.11
2018-05-17T05:46:57.303Z,1015.11
2018-05-17T05:48:05.944Z,1015.11
2018-05-17T05:49:14.658Z,1015.09
2018-05-17T05:50:23.623Z,1015.08
2018-05-17T05:51:32.266Z,1015.15
2018-05-17T05:52:40.912Z,1015.05
2018-05-17T05:53:49.554Z,1015.11
2018-05-17T05:54:58.462Z,1015.14
2018-05-17T05:56:07.103Z,1015.16
2018-05-17T05:57:15.751Z,1015.16
2018-05-17T05:58:24.391Z,1015.22
2018-05-17T05:59:33.046Z,1015.16
2018-05-17T06:00:41.681Z,1015.21
2018-05-17T06:01:50.326Z,1015.21
2018-05-17T06:02:58.969Z,1015.19
2018-05-17T06:04:07.621Z,1015.18
2018-05-17T06:05:16.529Z,1015.18
2018-05-17T06:06:25.169Z,1015.23
2018-05-17T06:07:33.825Z,1015.19
2018-05-17T06:08:42.455Z,1015.2
2018-05-17T06:09:51.109Z,1015.2
2018-05-17T06:11:00.005Z,1015.18
2018-05-17T06:12:08.658Z,1015.16
2018-05-17T06:13:17.572Z,1015.19
2018-05-17T06:14:26.223Z,1015.11
2018-05-17T06:15:34.856Z,1015.23
2018-05-17T06:16:43.502Z,1015.22
2018-05-17T06:17:52.141Z,1015.26
2018-05-17T06:19:01.059Z,1015.27
2018-05-17T06:20:09.699Z,1015.31
2018-05-17T06:21:18.340Z,1015.3
2018-05-17T06:22:26.982Z,1015.35
2018-05-17T06:23:35.623Z,1015.31
2018-05-17T06:24:44.279Z,1015.35
2018-05-17T06:25:52.914Z,1015.37
2018-05-17T06:27:01.562Z,1015.41
2018-05-17T06:28:10.196Z,1015.38
2018-05-17T06:29:18.848Z,1015.38
2018-05-17T06:30:27.589Z,1015.4
2018-05-17T06:31:36.138Z,1015.42
2018-05-17T06:32:44.771Z,1015.37
2018-05-17T06:33:53.422Z,1015.4
2018-05-17T06:35:02.068Z,1015.39
2018-05-17T06:36:10.977Z,1015.4
2018-05-17T06:37:19.610Z,1015.41
2018-05-17T06:38:28.249Z,1015.39
2018-05-17T06:39:36.897Z,1015.4
2018-05-17T06:40:45.548Z,1015.38
2018-05-17T06:41:54.458Z,1015.4
2018-05-17T06:43:03.093Z,1015.35
2018-05-17T06:44:12.011Z,1015.34
2018-05-17T06:45:20.648Z,1015.41
2018-05-17T06:46:29.301Z,1015.35
2018-05-17T06:47:37.936Z,1015.43
2018-05-17T06:48:46.584Z,1015.39
2018-05-17T06:49:55.222Z,1015.38
2018-05-17T06:51:03.874Z,1015.4
2018-05-17T06:52:12.510Z,1015.45
2018-05-17T06:53:21.159Z,1015.4
2018-05-17T06:54:29.800Z,1015.43
2018-05-17T06:55:38.453Z,1015.46
2018-05-17T06:56:47.094Z,1015.46
2018-05-17T06:57:55.734Z,1015.52
2018-05-17T06:59:04.375Z,1015.48
2018-05-17T07:00:13.014Z,1015.52
2018-05-17T07:01:21.932Z,1015.55
2018-05-17T07:02:30.570Z,1015.54
2018-05-17T07:03:39.485Z,1015.56
2018-05-17T07:04:48.387Z,1015.58
2018-05-17T07:05:57.040Z,1015.52
2018-05-17T07:07:05.959Z,1015.5
2018-05-17T07:08:14.596Z,1015.53
2018-05-17T07:09:23.304Z,1015.54
2018-05-17T07:10:31.922Z,1015.55
2018-05-17T07:11:40.528Z,1015.56
2018-05-17T07:12:49.175Z,1015.52
2018-05-17T07:13:58.093Z,1015.48
2018-05-17T07:15:07.000Z,1015.56
2018-05-17T07:16:15.639Z,1015.57
2018-05-17T07:17:24.284Z,1015.53
2018-05-17T07:18:33.074Z,1015.51
2018-05-17T07:19:43.347Z,1015.46
2018-05-17T07:20:51.991Z,1015.47
2018-05-17T07:22:00.903Z,1015.55
2018-05-17T07:23:09.550Z,1015.52
2018-05-17T07:24:18.192Z,1015.54
2018-05-17T07:25:26.835Z,1015.52
2018-05-17T07:26:35.482Z,1015.58
2018-05-17T07:27:44.132Z,1015.62
2018-05-17T07:28:52.775Z,1015.61
2018-05-17T07:30:01.421Z,1015.61
2018-05-17T07:31:10.068Z,1015.63
2018-05-17T07:32:19.025Z,1015.63
2018-05-17T07:33:27.671Z,1015.62
2018-05-17T07:34:36.311Z,1015.64
2018-05-17T07:35:45.221Z,1015.64
2018-05-17T07:36:53.864Z,1015.67
2018-05-17T07:38:02.780Z,1015.67
2018-05-17T07:39:11.717Z,1015.72
2018-05-17T07:40:20.337Z,1015.66
2018-05-17T07:41:28.978Z,1015.63
2018-05-17T07:42:37.628Z,1015.69
2018-05-17T07:43:46.272Z,1015.64
2018-05-17T07:44:54.917Z,1015.64
2018-05-17T07:46:03.838Z,1015.63
2018-05-17T07:47:12.548Z,1015.66
2018-05-17T07:48:21.129Z,1015.66
2018-05-17T07:49:29.774Z,1015.65
2018-05-17T07:50:38.415Z,1015.7
2018-05-17T07:51:47.063Z,1015.66
2018-05-17T07:52:55.979Z,1015.64
2018-05-17T07:54:04.623Z,1015.72
2018-05-17T07:55:13.270Z,1015.65
2018-05-17T07:56:21.912Z,1015.6
2018-05-17T07:57:30.559Z,1015.55
2018-05-17T07:58:39.205Z,1015.65
2018-05-17T07:59:47.854Z,1015.67
2018-05-17T08:00:56.758Z,1015.66
2018-05-17T08:02:05.404Z,1015.68
2018-05-17T08:03:14.049Z,1015.68
2018-05-17T08:04:22.701Z,1015.67
2018-05-17T08:05:31.336Z,1015.72
2018-05-17T08:06:40.255Z,1015.73
2018-05-17T08:07:48.903Z,1015.74
2018-05-17T08:08:57.556Z,1015.8
2018-05-17T08:10:06.198Z,1015.88
2018-05-17T08:11:14.842Z,1015.79
2018-05-17T08:12:23.484Z,1015.82
2018-05-17T08:13:32.391Z,1015.82
2018-05-17T08:14:41.046Z,1015.82
2018-05-17T08:15:49.687Z,1015.85
2018-05-17T08:16:58.336Z,1015.85
2018-05-17T08:18:06.972Z,1015.88
2018-05-17T08:19:15.628Z,1015.9
2018-05-17T08:20:24.267Z,1015.85
2018-05-17T08:21:32.917Z,1015.84
2018-05-17T08:22:41.553Z,1015.87
2018-05-17T08:23:50.207Z,1015.83
2018-05-17T08:24:58.851Z,1015.88
2018-05-17T08:26:07.498Z,1015.87
2018-05-17T08:27:16.135Z,1015.89
2018-05-17T08:28:24.779Z,1015.84
2018-05-17T08:29:33.431Z,1015.86
2018-05-17T08:30:42.080Z,1015.9
2018-05-17T08:31:50.725Z,1015.84
2018-05-17T08:32:59.361Z,1015.91
2018-05-17T08:34:08.011Z,1015.9
2018-05-17T08:35:16.652Z,1015.93
2018-05-17T08:36:25.673Z,1015.94
2018-05-17T08:37:34.721Z,1015.98
2018-05-17T08:38:43.371Z,1015.94
2018-05-17T08:39:52.011Z,1015.94
2018-05-17T08:41:00.931Z,1015.98
2018-05-17T08:42:09.564Z,1015.97
2018-05-17T08:43:18.213Z,1016.03
2018-05-17T08:44:26.861Z,1016
2018-05-17T08:45:35.807Z,1015.99
2018-05-17T08:46:44.743Z,1016
2018-05-17T08:47:53.390Z,1015.99
2018-05-17T08:49:02.034Z,1015.97
2018-05-17T08:50:10.676Z,1015.97
2018-05-17T08:51:19.330Z,1015.93
2018-05-17T08:52:27.971Z,1015.92
2018-05-17T08:53:36.624Z,1015.83
2018-05-17T08:54:45.261Z,1015.89
2018-05-17T08:55:53.916Z,1015.99
2018-05-17T08:57:02.559Z,1015.94
2018-05-17T08:58:11.209Z,1015.85
2018-05-17T08:59:19.846Z,1015.84
2018-05-17T09:00:28.499Z,1015.89
2018-05-17T09:01:37.408Z,1015.92
2018-05-17T09:02:46.046Z,1015.93
2018-05-17T09:03:54.707Z,1015.95
2018-05-17T09:05:03.349Z,1015.92
2018-05-17T09:06:12.021Z,1015.86
2018-05-17T09:07:20.640Z,1015.94
2018-05-17T09:08:29.281Z,1015.87
2018-05-17T09:09:37.936Z,1015.86
2018-05-17T09:10:46.598Z,1015.85
2018-05-17T09:11:55.252Z,1015.86
2018-05-17T09:13:04.157Z,1015.87
2018-05-17T09:14:12.820Z,1015.85
2018-05-17T09:15:21.460Z,1015.86
2018-05-17T09:16:30.109Z,1015.94
2018-05-17T09:17:38.746Z,1015.92
2018-05-17T09:18:47.401Z,1015.8
2018-05-17T09:19:56.048Z,1015.92
2018-05-17T09:21:04.696Z,1015.91
2018-05-17T09:22:13.340Z,1015.92
2018-05-17T09:23:21.990Z,1015.96
2018-05-17T09:24:30.904Z,1015.93
2018-05-17T09:25:39.820Z,1015.9
2018-05-17T09:26:48.738Z,1015.94
2018-05-17T09:27:57.374Z,1015.92
2018-05-17T09:29:06.322Z,1015.92
2018-05-17T09:30:15.258Z,1015.94
2018-05-17T09:31:24.708Z,1015.99
2018-05-17T09:32:33.606Z,1015.94
2018-05-17T09:33:42.257Z,1016.01
2018-05-17T09:34:50.898Z,1015.96
2018-05-17T09:35:59.814Z,1015.97
2018-05-17T09:37:08.454Z,1016
2018-05-17T09:38:17.373Z,1015.96
2018-05-17T09:39:26.019Z,1016.04
2018-05-17T09:40:34.936Z,1016.06
2018-05-17T09:41:43.580Z,1015.99
2018-05-17T09:42:52.220Z,1016.04
2018-05-17T09:44:00.863Z,1015.97
2018-05-17T09:45:09.772Z,1015.98
2018-05-17T09:46:18.431Z,1016
2018-05-17T09:47:27.068Z,1015.92
2018-05-17T09:48:35.732Z,1015.94
2018-05-17T09:49:44.637Z,1015.94
2018-05-17T09:50:53.288Z,1016.01
2018-05-17T09:52:01.929Z,1015.97
2018-05-17T09:53:10.581Z,1015.94
2018-05-17T09:54:19.218Z,1016.01
2018-05-17T09:55:27.875Z,1015.93
2018-05-17T09:56:36.519Z,1015.93
2018-05-17T09:57:45.168Z,1015.95
2018-05-17T09:58:53.804Z,1015.95
2018-05-17T10:00:02.454Z,1015.92
2018-05-17T10:01:11.372Z,1015.9
2018-05-17T10:02:20.287Z,1015.92
2018-05-17T10:03:28.934Z,1015.89
2018-05-17T10:04:37.575Z,1015.81
2018-05-17T10:05:46.221Z,1015.86
2018-05-17T10:06:54.870Z,1015.81
2018-05-17T10:08:03.519Z,1015.89
2018-05-17T10:09:12.161Z,1015.85
2018-05-17T10:10:20.809Z,1015.85
2018-05-17T10:11:29.455Z,1015.87
2018-05-17T10:12:38.103Z,1015.8
2018-05-17T10:13:46.746Z,1015.84
2018-05-17T10:14:55.397Z,1015.91
2018-05-17T10:16:04.047Z,1015.8
2018-05-17T10:17:12.701Z,1015.78
2018-05-17T10:18:21.346Z,1015.66
2018-05-17T10:19:29.991Z,1015.71
2018-05-17T10:20:38.904Z,1015.74
2018-05-17T10:21:47.562Z,1015.75
2018-05-17T10:22:56.200Z,1015.69
2018-05-17T10:24:05.970Z,1015.67
2018-05-17T10:25:14.619Z,1015.67
2018-05-17T10:26:23.257Z,1015.63
2018-05-17T10:27:32.177Z,1015.5
2018-05-17T10:28:40.829Z,1015.54
2018-05-17T10:29:49.475Z,1015.64
2018-05-17T10:30:58.119Z,1015.64
2018-05-17T10:32:06.767Z,1015.59
2018-05-17T10:33:15.687Z,1015.58
2018-05-17T10:34:24.343Z,1015.59
2018-05-17T10:35:33.242Z,1015.54
2018-05-17T10:36:42.158Z,1015.6
2018-05-17T10:37:50.806Z,1015.54
2018-05-17T10:38:59.716Z,1015.57
2018-05-17T10:40:08.367Z,1015.54
2018-05-17T10:41:17.008Z,1015.55
2018-05-17T10:42:25.657Z,1015.62
2018-05-17T10:43:34.300Z,1015.59
2018-05-17T10:44:43.220Z,1015.64
2018-05-17T10:45:51.860Z,1015.57
2018-05-17T10:47:00.510Z,1015.64
2018-05-17T10:48:09.163Z,1015.61
2018-05-17T10:49:18.104Z,1015.64
2018-05-17T10:50:26.780Z,1015.63
2018-05-17T10:51:35.776Z,1015.62
2018-05-17T10:52:44.419Z,1015.6
2018-05-17T10:53:53.070Z,1015.62
2018-05-17T10:55:01.714Z,1015.62
2018-05-17T10:56:10.360Z,1015.55
2018-05-17T10:57:19.008Z,1015.52
2018-05-17T10:58:28.187Z,1015.59
2018-05-17T10:59:36.838Z,1015.5
2018-05-17T11:00:45.493Z,1015.57
2018-05-17T11:01:54.133Z,1015.52
2018-05-17T11:03:02.788Z,1015.55
2018-05-17T11:04:11.426Z,1015.54
2018-05-17T11:05:20.077Z,1015.61
2018-05-17T11:06:28.725Z,1015.56
2018-05-17T11:07:37.639Z,1015.54
2018-05-17T11:08:46.285Z,1015.61
2018-05-17T11:09:54.925Z,1015.56
2018-05-17T11:11:03.573Z,1015.51
2018-05-17T11:12:12.507Z,1015.55
2018-05-17T11:13:21.132Z,1015.59
2018-05-17T11:14:29.776Z,1015.55
2018-05-17T11:15:38.680Z,1015.63
2018-05-17T11:16:47.323Z,1015.56
2018-05-17T11:17:55.980Z,1015.63
2018-05-17T11:19:04.623Z,1015.67
2018-05-17T11:20:13.275Z,1015.57
2018-05-17T11:21:21.917Z,1015.5
2018-05-17T11:22:30.572Z,1015.56
2018-05-17T11:23:39.213Z,1015.59
2018-05-17T11:24:47.864Z,1015.59
2018-05-17T11:25:56.553Z,1015.55
2018-05-17T11:27:05.159Z,1015.56
2018-05-17T11:28:13.801Z,1015.56
2018-05-17T11:29:22.453Z,1015.57
2018-05-17T11:30:31.091Z,1015.55
2018-05-17T11:31:39.741Z,1015.6
2018-05-17T11:32:48.392Z,1015.49
2018-05-17T11:33:57.042Z,1015.48
2018-05-17T11:35:05.692Z,1015.51
2018-05-17T11:36:14.335Z,1015.56
2018-05-17T11:37:22.984Z,1015.57
2018-05-17T11:38:31.675Z,1015.58
2018-05-17T11:39:40.282Z,1015.56
2018-05-17T11:40:48.926Z,1015.57
2018-05-17T11:41:57.573Z,1015.55
2018-05-17T11:43:06.221Z,1015.45
2018-05-17T11:44:14.928Z,1015.48
2018-05-17T11:45:23.511Z,1015.48
2018-05-17T11:46:32.159Z,1015.49
2018-05-17T11:47:40.803Z,1015.44
2018-05-17T11:48:49.459Z,1015.44
2018-05-17T11:49:58.104Z,1015.43
2018-05-17T11:51:06.747Z,1015.39
2018-05-17T11:52:15.392Z,1015.45
2018-05-17T11:53:24.035Z,1015.39
2018-05-17T11:54:32.691Z,1015.39
2018-05-17T11:55:41.595Z,1015.4
2018-05-17T11:56:50.249Z,1015.34
2018-05-17T11:57:58.892Z,1015.35
2018-05-17T11:59:07.812Z,1015.35
2018-05-17T12:00:16.461Z,1015.34
2018-05-17T12:01:25.694Z,1015.31
2018-05-17T12:02:34.347Z,1015.26
2018-05-17T12:03:42.945Z,1015.3
2018-05-17T12:04:51.593Z,1015.3
2018-05-17T12:06:00.244Z,1015.26
2018-05-17T12:07:08.890Z,1015.27
2018-05-17T12:08:18.115Z,1015.34
2018-05-17T12:09:26.771Z,1015.34
2018-05-17T12:10:35.423Z,1015.24
2018-05-17T12:11:44.073Z,1015.28
2018-05-17T12:12:52.717Z,1015.33
2018-05-17T12:14:01.368Z,1015.3
2018-05-17T12:15:10.287Z,1015.26
2018-05-17T12:16:18.937Z,1015.28
2018-05-17T12:17:27.854Z,1015.26
2018-05-17T12:18:36.503Z,1015.27
2018-05-17T12:19:45.163Z,1015.24
2018-05-17T12:20:54.081Z,1015.3
2018-05-17T12:22:02.723Z,1015.33
2018-05-17T12:23:11.373Z,1015.26
2018-05-17T12:24:20.018Z,1015.28
2018-05-17T12:25:28.668Z,1015.3
2018-05-17T12:26:37.315Z,1015.26
2018-05-17T12:27:46.224Z,1015.24
2018-05-17T12:28:55.137Z,1015.23
2018-05-17T12:30:03.785Z,1015.23
2018-05-17T12:31:12.433Z,1015.19
2018-05-17T12:32:21.081Z,1015.19
2018-05-17T12:33:29.992Z,1015.2
2018-05-17T12:34:38.903Z,1015.14
2018-05-17T12:35:47.820Z,1015.18
2018-05-17T12:36:56.470Z,1015.15
2018-05-17T12:38:05.115Z,1015.18
2018-05-17T12:39:13.757Z,1015.14
2018-05-17T12:40:22.409Z,1015.08
2018-05-17T12:41:31.053Z,1015.14
2018-05-17T12:42:39.703Z,1015.16
2018-05-17T12:43:48.639Z,1015.2
2018-05-17T12:44:57.287Z,1015.18
2018-05-17T12:46:05.936Z,1015.17
2018-05-17T12:47:14.590Z,1015.21
2018-05-17T12:48:23.242Z,1015.17
2018-05-17T12:49:32.151Z,1015.25
2018-05-17T12:50:41.064Z,1015.21
2018-05-17T12:51:49.713Z,1015.19
2018-05-17T12:52:58.364Z,1015.18
2018-05-17T12:54:07.270Z,1015.18
2018-05-17T12:55:15.916Z,1015.14
2018-05-17T12:56:24.565Z,1015.16
2018-05-17T12:57:33.478Z,1015.13
2018-05-17T12:58:42.155Z,1015.09
2018-05-17T12:59:50.779Z,1015.2
2018-05-17T13:00:59.421Z,1015.25
2018-05-17T13:02:08.065Z,1015.3
2018-05-17T13:03:16.717Z,1015.26
2018-05-17T13:04:25.897Z,1015.23
2018-05-17T13:05:35.076Z,1015.21
2018-05-17T13:06:43.729Z,1015.2
2018-05-17T13:07:52.375Z,1015.22
2018-05-17T13:09:01.022Z,1015.1
2018-05-17T13:10:09.946Z,1015.06
2018-05-17T13:11:18.595Z,1015.2
2018-05-17T13:12:27.241Z,1015.1
2018-05-17T13:13:36.159Z,1015.17
2018-05-17T13:14:44.806Z,1015.13
2018-05-17T13:15:53.458Z,1015.1
2018-05-17T13:17:02.103Z,1015.12
2018-05-17T13:18:10.752Z,1015.09
2018-05-17T13:19:19.402Z,1015.08
2018-05-17T13:20:28.052Z,1015.09
2018-05-17T13:21:36.695Z,1015.1
2018-05-17T13:22:45.605Z,1015.14
2018-05-17T13:23:54.251Z,1015.17
2018-05-17T13:25:02.902Z,1015.08
2018-05-17T13:26:11.815Z,1015.01
2018-05-17T13:27:20.463Z,1015
2018-05-17T13:28:29.114Z,1015.05
2018-05-17T13:29:37.758Z,1015.04
2018-05-17T13:30:46.679Z,1014.97
2018-05-17T13:31:55.325Z,1014.96
2018-05-17T13:33:03.975Z,1015.06
2018-05-17T13:34:12.878Z,1015.01
2018-05-17T13:35:21.808Z,1015
2018-05-17T13:36:30.454Z,1015.03
2018-05-17T13:37:39.364Z,1015
2018-05-17T13:38:48.012Z,1015.01
2018-05-17T13:39:56.660Z,1015
2018-05-17T13:41:05.309Z,1015.01
2018-05-17T13:42:13.959Z,1014.99
2018-05-17T13:43:22.936Z,1015.02
2018-05-17T13:44:31.845Z,1015.04
2018-05-17T13:45:40.493Z,1015.01
2018-05-17T13:46:49.141Z,1015
2018-05-17T13:47:57.943Z,1015.03
2018-05-17T13:49:06.964Z,1014.98
2018-05-17T13:50:15.880Z,1014.97
2018-05-17T13:51:24.529Z,1014.96
2018-05-17T13:52:33.186Z,1014.98
2018-05-17T13:53:41.826Z,1015.02
2018-05-17T13:54:50.477Z,1015.04
2018-05-17T13:55:59.120Z,1015